Time;durP1;ratioP1;P1;durP2;ratioP2;P2;SDS_P1;SDS_P2;PMS_P1;PMS_P2;Temp;Humidity;BMP_temperature;BMP_pressure;BME280_temperature;BME280_humidity;BME280_pressure;Samples;Min_cycle;Max_cycle;Signal;HPM_P1;HPM_P2
2023/09/02 05:17:20;;;;;;;;;;;;;;;;;;5004205;28;19932;-46
2023/09/02 05:19:46;;;;;;;;;;;;;;;;;;5007029;28;19914;-49
2023/09/02 05:22:11;;;;;;;;;;;;;;;;;;5002851;28;19964;-50
2023/09/02 05:24:37;;;;;;;;;;;;;;;;;;5010585;28;19910;-49
2023/09/02 05:27:04;;;;;;;;;;;;;;;;;;5010169;28;19917;-48
2023/09/02 05:29:30;;;;;;;;;;;;;;;;;;5003279;28;19936;-50
2023/09/02 05:31:55;;;;;;;;;;;;;;;;;;5010239;28;19913;-46
2023/09/02 05:34:21;;;;;;;;;;;;;;;;;;5010535;28;20376;-47
2023/09/02 05:36:47;;;;;;;;;;;;;;;;;;5010504;28;19957;-48
2023/09/02 05:39:13;;;;;;;;;;;;;;;;;;5010594;28;20384;-50
2023/09/02 05:41:39;;;;;;;;;;;;;;;;;;5008754;28;19910;-49
2023/09/02 05:44:05;;;;;;;;;;;;;;;;;;5008987;28;19924;-46
2023/09/02 05:46:31;;;;;;;;;;;;;;;;;;4998583;28;19914;-49
2023/09/02 05:48:57;;;;;;;;;;;;;;;;;;5008391;28;19914;-48
2023/09/02 05:51:23;;;;;;;;;;;;;;;;;;5011947;28;19949;-47
2023/09/02 05:53:49;;;;;;;;;;;;;;;;;;5014190;28;20183;-48
2023/09/02 05:56:14;;;;;;;;;;;;;;;;;;5003629;28;20456;-47
2023/09/02 05:58:40;;;;;;;;;;;;;;;;;;4992971;28;19914;-49
2023/09/02 06:01:06;;;;;;;;;;;;;;;;;;4992251;28;19996;-51
2023/09/02 06:03:32;;;;;;;;;;;;;;;;;;5008521;28;19910;-48
2023/09/02 06:05:58;;;;;;;;;;;;;;;;;;4994541;28;19918;-48
2023/09/02 06:08:24;;;;;;;;;;;;;;;;;;5008657;28;19910;-50
2023/09/02 06:10:50;;;;;;;;;;;;;;;;;;5013749;28;19992;-51
2023/09/02 06:13:16;;;;;;;;;;;;;;;;;;5012282;28;20029;-49
2023/09/02 06:15:42;;;;;;;;;;;;;;;;;;5013575;28;19941;-46
2023/09/02 06:18:07;;;;;;;;;;;;;;;;;;5013976;28;20387;-47
2023/09/02 06:20:33;;;;;;;;;;;;;;;;;;5013485;28;19947;-50
2023/09/02 06:22:59;;;;;;;;;;;;;;;;;;5013074;28;19967;-49
2023/09/02 06:25:25;;;;;;;;;;;;;;;;;;5012674;28;19913;-51
2023/09/02 06:27:51;;;;;;;;;;;;;;;;;;5013564;28;19953;-49
2023/09/02 06:30:17;;;;;;;;;;;;;;;;;;5013571;28;19980;-48
2023/09/02 06:32:43;;;;;;;;;;;;;;;;;;5013420;28;19910;-47
2023/09/02 06:35:12;;;;;;;;;;;;;;;;;;5012995;28;20000;-47
2023/09/02 06:37:37;;;;;;;;;;;;;;;;;;5013406;28;20355;-49
2023/09/02 06:40:03;;;;;;;;;;;;;;;;;;5013307;28;19909;-49
2023/09/02 06:42:29;;;;;;;;;;;;;;;;;;5012831;28;19945;-50
2023/09/02 06:44:55;;;;;;;;;;;;;;;;;;5012243;28;20438;-47
2023/09/02 06:47:21;;;;;;;;;;;;;;;;;;5013032;28;19941;-49
2023/09/02 06:49:47;;;;;;;;;;;;;;;;;;5013170;28;19917;-50
2023/09/02 06:52:13;;;;;;;;;;;;;;;;;;5012124;28;20406;-50
2023/09/02 06:54:39;;;;;;;;;;;;;;;;;;5013179;28;19920;-48
2023/09/02 06:57:04;;;;;;;;;;;;;;;;;;5011292;28;19979;-49
2023/09/02 06:59:30;;;;;;;;;;;;;;;;;;5012284;28;19909;-47
2023/09/02 07:01:56;;;;;;;;;;;;;;;;;;5011410;28;19909;-48
2023/09/02 07:04:22;;;;;;;;;;;;;;;;;;5011594;28;20288;-48
2023/09/02 07:06:48;;;;;;;;;;;;;;;;;;4993537;28;19920;-47
2023/09/02 07:09:14;;;;;;;;;;;;;;;;;;5011525;28;19956;-50
2023/09/02 07:11:40;;;;;;;;;;;;;;;;;;5011513;28;19909;-49
2023/09/02 07:14:06;;;;;;;;;;;;;;;;;;5011582;28;20280;-50
2023/09/02 07:16:31;;;;;;;;;;;;;;;;;;5011558;28;19917;-50
2023/09/02 07:18:58;;;;;;;;;;;;;;;;;;5011677;28;20009;-49
2023/09/02 07:21:24;;;;;;;;;;;;;;;;;;5010986;28;20465;-48
2023/09/02 07:23:50;;;;;;;;;;;;;;;;;;5011355;28;19910;-50
2023/09/02 07:26:16;;;;;;;;;;;;;;;;;;5010985;28;19913;-49
2023/09/02 07:28:42;;;;;;;;;;;;;;;;;;5011258;28;19910;-49
2023/09/02 07:31:08;;;;;;;;;;;;;;;;;;5011009;28;20029;-47
2023/09/02 07:33:34;;;;;;;;;;;;;;;;;;5011125;28;19913;-49
2023/09/02 07:36:00;;;;;;;;;;;;;;;;;;5010996;28;19909;-47
2023/09/02 07:38:26;;;;;;;;;;;;;;;;;;5011484;28;19913;-46
2023/09/02 07:40:52;;;;;;;;;;;;;;;;;;5010747;28;19917;-52
2023/09/02 07:43:18;;;;;;;;;;;;;;;;;;5011276;28;19909;-46
2023/09/02 07:45:44;;;;;;;;;;;;;;;;;;5010484;28;19960;-51
2023/09/02 07:48:10;;;;;;;;;;;;;;;;;;5010924;28;20394;-49
2023/09/02 07:50:36;;;;;;;;;;;;;;;;;;5010614;28;19916;-48
2023/09/02 07:53:02;;;;;;;;;;;;;;;;;;5011004;28;19992;-49
2023/09/02 07:55:27;;;;;;;;;;;;;;;;;;5010868;28;19913;-49
2023/09/02 07:57:53;;;;;;;;;;;;;;;;;;5010225;28;19917;-50
2023/09/02 08:00:19;;;;;;;;;;;;;;;;;;5010707;28;19924;-48
2023/09/02 08:02:45;;;;;;;;;;;;;;;;;;5010416;28;19910;-48
2023/09/02 08:05:11;;;;;;;;;;;;;;;;;;5010498;28;19914;-46
2023/09/02 08:07:37;;;;;;;;;;;;;;;;;;5010139;28;19995;-46
2023/09/02 08:10:03;;;;;;;;;;;;;;;;;;5010763;28;20000;-48
2023/09/02 08:12:29;;;;;;;;;;;;;;;;;;5009727;28;20279;-46
2023/09/02 08:14:55;;;;;;;;;;;;;;;;;;5010178;28;19913;-48
2023/09/02 08:17:20;;;;;;;;;;;;;;;;;;5010038;28;19917;-48
2023/09/02 08:19:46;;;;;;;;;;;;;;;;;;5010148;28;19952;-47
2023/09/02 08:22:13;;;;;;;;;;;;;;;;;;5010057;28;19909;-50
2023/09/02 08:24:38;;;;;;;;;;;;;;;;;;5010293;28;20355;-47
2023/09/02 08:27:04;;;;;;;;;;;;;;;;;;5009996;28;19917;-51
2023/09/02 08:29:30;;;;;;;;;;;;;;;;;;5010069;28;19910;-49
2023/09/02 08:31:56;;;;;;;;;;;;;;;;;;5009872;28;19949;-48
2023/09/02 08:34:22;;;;;;;;;;;;;;;;;;5009966;28;19909;-49
2023/09/02 08:36:48;;;;;;;;;;;;;;;;;;5010190;28;20414;-47
2023/09/02 08:39:14;;;;;;;;;;;;;;;;;;5009804;28;19910;-50
2023/09/02 08:41:39;;;;;;;;;;;;;;;;;;5009801;28;19910;-50
2023/09/02 08:44:05;;;;;;;;;;;;;;;;;;5010188;28;19971;-50
2023/09/02 08:46:31;;;;;;;;;;;;;;;;;;5009735;28;19920;-50
2023/09/02 08:48:57;;;;;;;;;;;;;;;;;;5009787;28;19914;-48
2023/09/02 08:51:23;;;;;;;;;;;;;;;;;;5009841;28;19952;-51
2023/09/02 08:53:49;;;;;;;;;;;;;;;;;;5009654;28;19920;-47
2023/09/02 08:56:15;;;;;;;;;;;;;;;;;;5009826;28;19913;-50
2023/09/02 08:58:41;;;;;;;;;;;;;;;;;;5009677;28;19917;-51
2023/09/02 09:01:07;;;;;;;;;;;;;;;;;;5010099;28;19976;-51
2023/09/02 09:03:33;;;;;;;;;;;;;;;;;;5009711;28;19909;-51
2023/09/02 09:05:59;;;;;;;;;;;;;;;;;;5009342;28;19917;-48
2023/09/02 09:08:24;;;;;;;;;;;;;;;;;;5009454;28;19914;-49
2023/09/02 09:10:50;;;;;;;;;;;;;;;;;;5009539;28;19963;-48
2023/09/02 09:13:16;;;;;;;;;;;;;;;;;;5009530;28;19917;-51
2023/09/02 09:15:42;;;;;;;;;;;;;;;;;;5009211;28;19916;-49
2023/09/02 09:18:08;;;;;;;;;;;;;;;;;;5009546;28;20015;-50
2023/09/02 09:20:35;;;;;;;;;;;;;;;;;;5009726;28;19909;-51
2023/09/02 09:23:01;;;;;;;;;;;;;;;;;;5009285;28;20384;-51
2023/09/02 09:25:27;;;;;;;;;;;;;;;;;;4994712;28;19917;-51
2023/09/02 09:27:53;;;;;;;;;;;;;;;;;;5013258;28;20288;-48
2023/09/02 09:30:18;;;;;;;;;;;;;;;;;;5013370;28;19936;-50
2023/09/02 09:32:44;;;;;;;;;;;;;;;;;;5013036;28;19935;-47
2023/09/02 09:35:10;;;;;;;;;;;;;;;;;;5013364;28;19916;-47
2023/09/02 09:37:36;;;;;;;;;;;;;;;;;;5013276;28;20342;-48
2023/09/02 09:40:02;;;;;;;;;;;;;;;;;;5013196;28;19983;-48
2023/09/02 09:42:28;;;;;;;;;;;;;;;;;;5013043;28;19916;-47
2023/09/02 09:44:54;;;;;;;;;;;;;;;;;;5013057;28;19910;-50
2023/09/02 09:47:20;;;;;;;;;;;;;;;;;;5013322;28;19914;-51
2023/09/02 09:49:49;;;;;;;;;;;;;;;;;;5013145;28;19960;-49
2023/09/02 09:52:15;;;;;;;;;;;;;;;;;;5012776;28;20458;-50
2023/09/02 09:54:40;;;;;;;;;;;;;;;;;;5013215;28;19909;-49
2023/09/02 09:57:06;;;;;;;;;;;;;;;;;;5012841;28;19909;-48
2023/09/02 09:59:34;;;;;;;;;;;;;;;;;;5013256;28;19909;-47
2023/09/02 10:02:00;;;;;;;;;;;;;;;;;;5012796;28;20311;-48
2023/09/02 10:04:26;;;;;;;;;;;;;;;;;;5012866;28;20393;-49
2023/09/02 10:06:52;;;;;;;;;;;;;;;;;;5012506;28;19922;-50
2023/09/02 10:09:18;;;;;;;;;;;;;;;;;;5012449;28;19910;-50
2023/09/02 10:11:43;;;;;;;;;;;;;;;;;;5012660;28;19956;-50
2023/09/02 10:14:09;;;;;;;;;;;;;;;;;;5012995;28;19909;-51
2023/09/02 10:16:35;;;;;;;;;;;;;;;;;;4994633;28;20398;-49
2023/09/02 10:19:01;;;;;;;;;;;;;;;;;;5012205;28;19910;-48
2023/09/02 10:21:27;;;;;;;;;;;;;;;;;;5012460;28;19956;-51
2023/09/02 10:23:53;;;;;;;;;;;;;;;;;;5012524;28;19964;-51
2023/09/02 10:26:20;;;;;;;;;;;;;;;;;;5012287;28;19918;-51
2023/09/02 10:28:45;;;;;;;;;;;;;;;;;;5012003;28;19909;-52
2023/09/02 10:31:12;;;;;;;;;;;;;;;;;;5013083;28;19909;-49
2023/09/02 10:33:38;;;;;;;;;;;;;;;;;;5012244;28;19910;-51
2023/09/02 10:36:04;;;;;;;;;;;;;;;;;;5011572;28;19916;-48
2023/09/02 10:38:30;;;;;;;;;;;;;;;;;;5011959;28;20423;-49
2023/09/02 10:40:56;;;;;;;;;;;;;;;;;;5011990;28;19909;-48
2023/09/02 10:43:22;;;;;;;;;;;;;;;;;;5011949;28;19909;-49
2023/09/02 10:45:48;;;;;;;;;;;;;;;;;;5011424;28;19924;-48
2023/09/02 10:48:14;;;;;;;;;;;;;;;;;;5011796;28;19970;-50
2023/09/02 10:50:40;;;;;;;;;;;;;;;;;;5012049;28;19964;-49
2023/09/02 10:53:06;;;;;;;;;;;;;;;;;;5011738;28;19916;-49
2023/09/02 10:55:32;;;;;;;;;;;;;;;;;;5011822;28;19905;-49
2023/09/02 10:57:58;;;;;;;;;;;;;;;;;;5011621;28;20203;-49
2023/09/02 11:00:24;;;;;;;;;;;;;;;;;;5011603;28;20375;-48
2023/09/02 11:02:53;;;;;;;;;;;;;;;;;;5011811;28;19910;-50
2023/09/02 11:05:19;;;;;;;;;;;;;;;;;;5011761;28;19905;-52
2023/09/02 11:07:45;;;;;;;;;;;;;;;;;;5011521;28;19917;-50
2023/09/02 11:10:11;;;;;;;;;;;;;;;;;;5011444;28;20000;-49
2023/09/02 11:12:37;;;;;;;;;;;;;;;;;;5010808;28;19909;-49
2023/09/02 11:15:02;;;;;;;;;;;;;;;;;;5005316;28;20487;-48
2023/09/02 11:17:28;;;;;;;;;;;;;;;;;;5009046;28;19918;-50
2023/09/02 11:19:54;;;;;;;;;;;;;;;;;;4989368;28;19953;-50
2023/09/02 11:22:20;;;;;;;;;;;;;;;;;;4989355;28;19909;-48
2023/09/02 11:24:46;;;;;;;;;;;;;;;;;;4989056;28;20423;-49
2023/09/02 11:27:12;;;;;;;;;;;;;;;;;;4989027;28;19918;-48
2023/09/02 11:29:38;;;;;;;;;;;;;;;;;;4988856;28;19910;-51
2023/09/02 11:32:04;;;;;;;;;;;;;;;;;;4989681;28;19957;-51
2023/09/02 11:34:29;;;;;;;;;;;;;;;;;;4988979;28;19910;-49
2023/09/02 11:36:56;;;;;;;;;;;;;;;;;;4989128;28;19922;-51
2023/09/02 11:39:22;;;;;;;;;;;;;;;;;;4989143;28;19910;-52
2023/09/02 11:41:48;;;;;;;;;;;;;;;;;;4988849;28;19952;-50
2023/09/02 11:44:14;;;;;;;;;;;;;;;;;;4988762;28;19917;-47
2023/09/02 11:46:40;;;;;;;;;;;;;;;;;;4988651;28;20076;-52
2023/09/02 11:49:06;;;;;;;;;;;;;;;;;;4988163;28;19917;-48
2023/09/02 11:51:32;;;;;;;;;;;;;;;;;;4989572;28;19910;-50
2023/09/02 11:53:57;;;;;;;;;;;;;;;;;;4988588;28;19910;-50
2023/09/02 11:56:24;;;;;;;;;;;;;;;;;;4988735;28;20364;-49
2023/09/02 11:58:50;;;;;;;;;;;;;;;;;;4988446;28;20209;-52
2023/09/02 12:01:16;;;;;;;;;;;;;;;;;;4988592;28;20260;-50
2023/09/02 12:03:42;;;;;;;;;;;;;;;;;;4988656;28;19910;-49
2023/09/02 12:06:08;;;;;;;;;;;;;;;;;;4988384;28;20401;-50
2023/09/02 12:08:34;;;;;;;;;;;;;;;;;;4989312;28;20255;-50
2023/09/02 12:11:01;;;;;;;;;;;;;;;;;;4988198;28;19910;-50
2023/09/02 12:13:26;;;;;;;;;;;;;;;;;;4970981;28;20499;-51
2023/09/02 12:15:52;;;;;;;;;;;;;;;;;;4987898;28;20004;-49
2023/09/02 12:18:18;;;;;;;;;;;;;;;;;;4988335;28;19910;-50
2023/09/02 12:20:44;;;;;;;;;;;;;;;;;;4988314;28;20292;-48
2023/09/02 12:23:10;;;;;;;;;;;;;;;;;;4988310;28;19910;-48
2023/09/02 12:25:38;;;;;;;;;;;;;;;;;;4988828;28;20467;-49
2023/09/02 12:28:04;;;;;;;;;;;;;;;;;;4988860;28;20099;-50
2023/09/02 12:30:33;;;;;;;;;;;;;;;;;;4987768;28;19933;-50
2023/09/02 12:32:59;;;;;;;;;;;;;;;;;;4987993;28;19910;-47
2023/09/02 12:35:25;;;;;;;;;;;;;;;;;;4988004;28;20291;-48
2023/09/02 12:37:51;;;;;;;;;;;;;;;;;;4988099;28;19916;-49
2023/09/02 12:40:17;;;;;;;;;;;;;;;;;;4987506;28;19909;-51
2023/09/02 12:42:42;;;;;;;;;;;;;;;;;;4987925;28;19910;-49
2023/09/02 12:45:09;;;;;;;;;;;;;;;;;;4987731;28;20396;-49
2023/09/02 12:47:34;;;;;;;;;;;;;;;;;;4988218;28;20360;-49
2023/09/02 12:50:03;;;;;;;;;;;;;;;;;;4987696;28;19910;-48
2023/09/02 12:52:29;;;;;;;;;;;;;;;;;;4987876;28;20320;-51
2023/09/02 12:54:55;;;;;;;;;;;;;;;;;;4987626;28;19913;-51
2023/09/02 12:57:21;;;;;;;;;;;;;;;;;;4987611;28;19909;-49
2023/09/02 12:59:47;;;;;;;;;;;;;;;;;;4986994;28;20296;-51
2023/09/02 13:02:13;;;;;;;;;;;;;;;;;;4987659;28;20288;-49
2023/09/02 13:04:39;;;;;;;;;;;;;;;;;;4987846;28;19910;-50
2023/09/02 13:07:04;;;;;;;;;;;;;;;;;;4970587;28;20377;-50
2023/09/02 13:09:30;;;;;;;;;;;;;;;;;;4987464;28;19909;-49
2023/09/02 13:11:56;;;;;;;;;;;;;;;;;;5000210;28;20016;-49
2023/09/02 13:14:22;;;;;;;;;;;;;;;;;;5007975;28;20364;-51
2023/09/02 13:16:48;;;;;;;;;;;;;;;;;;5006916;28;19921;-49
2023/09/02 13:19:14;;;;;;;;;;;;;;;;;;5007934;28;19910;-50
2023/09/02 13:21:40;;;;;;;;;;;;;;;;;;5006826;28;20000;-48
2023/09/02 13:24:06;;;;;;;;;;;;;;;;;;5006998;28;19914;-48
2023/09/02 13:26:31;;;;;;;;;;;;;;;;;;5006556;28;19913;-48
2023/09/02 13:28:57;;;;;;;;;;;;;;;;;;5006952;28;19910;-51
2023/09/02 13:31:23;;;;;;;;;;;;;;;;;;5006867;28;19937;-49
2023/09/02 13:33:49;;;;;;;;;;;;;;;;;;5006851;28;20379;-53
2023/09/02 13:36:15;;;;;;;;;;;;;;;;;;5007128;28;19910;-52
2023/09/02 13:38:41;;;;;;;;;;;;;;;;;;5006680;28;19918;-48
2023/09/02 13:41:07;;;;;;;;;;;;;;;;;;5006693;28;19948;-52
2023/09/02 13:43:33;;;;;;;;;;;;;;;;;;5006738;28;19917;-51
2023/09/02 13:45:59;;;;;;;;;;;;;;;;;;5006845;28;20020;-53
2023/09/02 13:48:24;;;;;;;;;;;;;;;;;;5006838;28;20372;-53
2023/09/02 13:50:50;;;;;;;;;;;;;;;;;;5006598;28;19917;-49
2023/09/02 13:53:16;;;;;;;;;;;;;;;;;;5007433;28;20000;-49
2023/09/02 13:55:42;;;;;;;;;;;;;;;;;;5006704;28;19910;-49
2023/09/02 13:58:08;;;;;;;;;;;;;;;;;;5006668;28;20014;-51
2023/09/02 14:00:35;;;;;;;;;;;;;;;;;;5006742;28;19916;-52
2023/09/02 14:03:01;;;;;;;;;;;;;;;;;;5006898;28;19960;-52
2023/09/02 14:05:27;;;;;;;;;;;;;;;;;;5006394;28;19914;-49
2023/09/02 14:07:54;;;;;;;;;;;;;;;;;;5006965;28;19909;-50
2023/09/02 14:10:20;;;;;;;;;;;;;;;;;;5006937;28;20379;-51
2023/09/02 14:12:46;;;;;;;;;;;;;;;;;;5010595;28;19916;-51
2023/09/02 14:15:12;;;;;;;;;;;;;;;;;;5010178;28;19917;-53
2023/09/02 14:17:37;;;;;;;;;;;;;;;;;;5009688;28;20001;-53
2023/09/02 14:20:03;;;;;;;;;;;;;;;;;;5010170;28;19909;-53
2023/09/02 14:22:29;;;;;;;;;;;;;;;;;;5010002;28;20464;-53
2023/09/02 14:24:55;;;;;;;;;;;;;;;;;;5010425;28;20422;-50
2023/09/02 14:27:21;;;;;;;;;;;;;;;;;;5009315;28;19968;-51
2023/09/02 14:29:49;;;;;;;;;;;;;;;;;;5009807;28;21469;-53
2023/09/02 14:32:15;;;;;;;;;;;;;;;;;;5009845;28;19960;-51
2023/09/02 14:34:42;;;;;;;;;;;;;;;;;;5009722;28;19913;-51
2023/09/02 14:37:08;;;;;;;;;;;;;;;;;;5009488;28;19909;-50
2023/09/02 14:39:34;;;;;;;;;;;;;;;;;;5009813;28;19995;-51
2023/09/02 14:42:02;;;;;;;;;;;;;;;;;;5006587;28;19921;-50
2023/09/02 14:44:28;;;;;;;;;;;;;;;;;;4997488;28;20437;-53
2023/09/02 14:46:54;;;;;;;;;;;;;;;;;;5009256;28;19913;-51
2023/09/02 14:49:20;;;;;;;;;;;;;;;;;;5008340;28;19921;-52
2023/09/02 14:51:46;;;;;;;;;;;;;;;;;;5008280;28;19910;-52
2023/09/02 14:54:12;;;;;;;;;;;;;;;;;;5009627;28;19992;-53
2023/09/02 14:56:38;;;;;;;;;;;;;;;;;;5007447;28;19936;-54
2023/09/02 14:59:03;;;;;;;;;;;;;;;;;;5000620;28;19910;-53
2023/09/02 15:01:29;;;;;;;;;;;;;;;;;;5008039;28;19980;-51
2023/09/02 15:03:55;;;;;;;;;;;;;;;;;;4995309;28;20301;-51
2023/09/02 15:06:21;;;;;;;;;;;;;;;;;;4998463;28;19917;-53
2023/09/02 15:08:47;;;;;;;;;;;;;;;;;;4995991;28;19910;-51
2023/09/02 15:11:13;;;;;;;;;;;;;;;;;;5003920;28;19913;-53
2023/09/02 15:13:39;;;;;;;;;;;;;;;;;;5007006;28;19943;-50
2023/09/02 15:16:05;;;;;;;;;;;;;;;;;;5010585;28;19921;-54
2023/09/02 15:18:31;;;;;;;;;;;;;;;;;;5011201;28;20375;-53
2023/09/02 15:20:57;;;;;;;;;;;;;;;;;;5011022;28;19917;-52
2023/09/02 15:23:22;;;;;;;;;;;;;;;;;;5009025;28;19913;-53
2023/09/02 15:25:48;;;;;;;;;;;;;;;;;;5010328;28;19909;-52
2023/09/02 15:28:14;;;;;;;;;;;;;;;;;;5008809;28;19913;-51
2023/09/02 15:30:40;;;;;;;;;;;;;;;;;;5009572;28;19913;-53
2023/09/02 15:33:06;;;;;;;;;;;;;;;;;;5010156;28;19916;-53
2023/09/02 15:35:32;;;;;;;;;;;;;;;;;;5010219;28;20292;-54
2023/09/02 15:37:58;;;;;;;;;;;;;;;;;;5009627;28;19968;-51
2023/09/02 15:40:25;;;;;;;;;;;;;;;;;;5010032;28;19975;-53
2023/09/02 15:42:51;;;;;;;;;;;;;;;;;;5009644;28;20420;-53
2023/09/02 15:45:17;;;;;;;;;;;;;;;;;;5020239;28;20001;-54
2023/09/02 15:47:43;;;;;;;;;;;;;;;;;;5008543;28;19937;-51
2023/09/02 15:50:09;;;;;;;;;;;;;;;;;;5009845;28;19910;-52
2023/09/02 15:52:35;;;;;;;;;;;;;;;;;;5006949;28;19914;-54
2023/09/02 15:55:01;;;;;;;;;;;;;;;;;;5007710;28;20278;-52
2023/09/02 15:57:27;;;;;;;;;;;;;;;;;;4990860;28;19917;-52
2023/09/02 15:59:53;;;;;;;;;;;;;;;;;;5007119;28;19948;-53
2023/09/02 16:02:19;;;;;;;;;;;;;;;;;;5008505;28;19921;-53
2023/09/02 16:04:45;;;;;;;;;;;;;;;;;;5008498;28;20012;-51
2023/09/02 16:07:11;;;;;;;;;;;;;;;;;;5005523;28;20075;-52
2023/09/02 16:09:38;;;;;;;;;;;;;;;;;;4999995;28;19909;-50
2023/09/02 16:12:03;;;;;;;;;;;;;;;;;;5005267;28;20442;-53
2023/09/02 16:14:29;;;;;;;;;;;;;;;;;;5007248;28;19914;-52
2023/09/02 16:16:55;;;;;;;;;;;;;;;;;;5008140;28;19928;-52
2023/09/02 16:19:21;;;;;;;;;;;;;;;;;;5003660;28;20008;-53
2023/09/02 16:21:47;;;;;;;;;;;;;;;;;;5008540;28;20291;-53
2023/09/02 16:24:13;;;;;;;;;;;;;;;;;;5003647;28;19964;-52
2023/09/02 16:26:39;;;;;;;;;;;;;;;;;;4990086;28;19976;-53
2023/09/02 16:29:05;;;;;;;;;;;;;;;;;;5002866;28;19959;-50
2023/09/02 16:31:31;;;;;;;;;;;;;;;;;;5008776;28;20010;-49
2023/09/02 16:33:57;;;;;;;;;;;;;;;;;;5006921;28;19967;-54
2023/09/02 16:36:23;;;;;;;;;;;;;;;;;;4997698;28;19909;-51
2023/09/02 16:38:48;;;;;;;;;;;;;;;;;;5007165;28;19921;-52
2023/09/02 16:41:14;;;;;;;;;;;;;;;;;;5005858;28;19992;-51
2023/09/02 16:43:40;;;;;;;;;;;;;;;;;;5007777;28;19913;-52
2023/09/02 16:46:06;;;;;;;;;;;;;;;;;;4996195;28;20016;-53
2023/09/02 16:48:32;;;;;;;;;;;;;;;;;;5008547;28;20443;-49
2023/09/02 16:50:58;;;;;;;;;;;;;;;;;;5001548;28;19914;-50
2023/09/02 16:53:24;;;;;;;;;;;;;;;;;;5000646;28;20398;-49
2023/09/02 16:55:50;;;;;;;;;;;;;;;;;;5005887;28;19917;-51
2023/09/02 16:58:16;;;;;;;;;;;;;;;;;;4993658;28;19910;-53
2023/09/02 17:00:41;;;;;;;;;;;;;;;;;;5007129;28;20398;-49
2023/09/02 17:03:07;;;;;;;;;;;;;;;;;;5006698;28;19939;-50
2023/09/02 17:05:34;;;;;;;;;;;;;;;;;;4988633;28;20419;-52
2023/09/02 17:08:00;;;;;;;;;;;;;;;;;;5005903;28;19924;-51
2023/09/02 17:10:26;;;;;;;;;;;;;;;;;;5006668;28;19917;-52
2023/09/02 17:12:51;;;;;;;;;;;;;;;;;;5005281;28;19961;-52
2023/09/02 17:15:17;;;;;;;;;;;;;;;;;;5004228;28;19913;-49
2023/09/02 17:17:43;;;;;;;;;;;;;;;;;;4984580;28;19921;-52
2023/09/02 17:20:09;;;;;;;;;;;;;;;;;;4993899;28;19953;-48
2023/09/02 17:22:35;;;;;;;;;;;;;;;;;;5006752;28;19917;-50
2023/09/02 17:25:01;;;;;;;;;;;;;;;;;;4996585;28;20381;-51
2023/09/02 17:27:27;;;;;;;;;;;;;;;;;;4997894;28;19920;-52
2023/09/02 17:29:53;;;;;;;;;;;;;;;;;;4989539;28;20618;-50
2023/09/02 17:32:19;;;;;;;;;;;;;;;;;;5005879;28;19913;-51
2023/09/02 17:34:45;;;;;;;;;;;;;;;;;;4996980;28;19948;-49
2023/09/02 17:37:10;;;;;;;;;;;;;;;;;;4979326;28;19914;-51
2023/09/02 17:39:36;;;;;;;;;;;;;;;;;;4999138;28;19913;-51
2023/09/02 17:42:02;;;;;;;;;;;;;;;;;;5004134;28;19940;-49
2023/09/02 17:44:28;;;;;;;;;;;;;;;;;;5005118;28;19910;-51
2023/09/02 17:46:54;;;;;;;;;;;;;;;;;;5006586;28;19927;-52
2023/09/02 17:49:20;;;;;;;;;;;;;;;;;;5008421;28;20520;-50
2023/09/02 17:51:46;;;;;;;;;;;;;;;;;;5009120;28;19956;-49
2023/09/02 17:54:12;;;;;;;;;;;;;;;;;;5006531;28;19910;-49
2023/09/02 17:56:37;;;;;;;;;;;;;;;;;;5008433;28;19913;-51
2023/09/02 17:59:03;;;;;;;;;;;;;;;;;;5010763;28;19949;-51
2023/09/02 18:01:29;;;;;;;;;;;;;;;;;;4989520;28;19914;-49
2023/09/02 18:03:55;;;;;;;;;;;;;;;;;;5010359;28;19920;-52
2023/09/02 18:06:21;;;;;;;;;;;;;;;;;;5005237;28;20306;-51
2023/09/02 18:08:48;;;;;;;;;;;;;;;;;;5003654;28;20008;-50
2023/09/02 18:11:14;;;;;;;;;;;;;;;;;;4988527;28;20285;-49
2023/09/02 18:13:40;;;;;;;;;;;;;;;;;;5007110;28;20004;-49
2023/09/02 18:16:06;;;;;;;;;;;;;;;;;;4987334;28;19917;-50
2023/09/02 18:18:32;;;;;;;;;;;;;;;;;;5004786;28;19921;-46
2023/09/02 18:20:58;;;;;;;;;;;;;;;;;;5002611;28;19913;-49
2023/09/02 18:23:24;;;;;;;;;;;;;;;;;;5003443;28;20411;-49
2023/09/02 18:25:49;;;;;;;;;;;;;;;;;;5008504;28;19940;-51
2023/09/02 18:28:15;;;;;;;;;;;;;;;;;;4999896;28;19921;-53
2023/09/02 18:30:41;;;;;;;;;;;;;;;;;;5000486;28;19963;-49
2023/09/02 18:33:08;;;;;;;;;;;;;;;;;;5005171;28;19917;-50
2023/09/02 18:35:34;;;;;;;;;;;;;;;;;;5006271;28;19914;-49
2023/09/02 18:38:00;;;;;;;;;;;;;;;;;;5006984;28;19913;-49
2023/09/02 18:40:26;;;;;;;;;;;;;;;;;;5006248;28;20404;-48
2023/09/02 18:42:51;;;;;;;;;;;;;;;;;;5007568;28;19920;-49
2023/09/02 18:45:17;;;;;;;;;;;;;;;;;;5006821;28;19954;-48
2023/09/02 18:47:43;;;;;;;;;;;;;;;;;;4997872;28;20046;-51
2023/09/02 18:50:09;;;;;;;;;;;;;;;;;;4984706;28;19910;-49
2023/09/02 18:52:35;;;;;;;;;;;;;;;;;;5005761;28;20003;-48
2023/09/02 18:55:01;;;;;;;;;;;;;;;;;;4989534;28;19909;-47
2023/09/02 18:57:28;;;;;;;;;;;;;;;;;;5007989;28;20356;-52
2023/09/02 18:59:54;;;;;;;;;;;;;;;;;;5006056;28;20550;-48
2023/09/02 19:02:20;;;;;;;;;;;;;;;;;;5003587;28;19924;-51
2023/09/02 19:04:46;;;;;;;;;;;;;;;;;;5007101;28;19963;-48
2023/09/02 19:07:12;;;;;;;;;;;;;;;;;;5006021;28;20016;-51
2023/09/02 19:09:37;;;;;;;;;;;;;;;;;;5002158;28;19920;-48
2023/09/02 19:12:03;;;;;;;;;;;;;;;;;;5004822;28;19910;-50
2023/09/02 19:14:30;;;;;;;;;;;;;;;;;;5006740;28;20411;-50
2023/09/02 19:16:56;;;;;;;;;;;;;;;;;;4989941;28;20004;-50
2023/09/02 19:19:22;;;;;;;;;;;;;;;;;;5007226;28;19921;-51
2023/09/02 19:21:48;;;;;;;;;;;;;;;;;;5007822;28;19913;-47
2023/09/02 19:24:14;;;;;;;;;;;;;;;;;;5008300;28;20115;-50
2023/09/02 19:26:40;;;;;;;;;;;;;;;;;;5007926;28;19964;-49
2023/09/02 19:29:06;;;;;;;;;;;;;;;;;;5008125;28;19921;-48
2023/09/02 19:31:32;;;;;;;;;;;;;;;;;;5008764;28;19936;-48
2023/09/02 19:33:57;;;;;;;;;;;;;;;;;;5005588;28;20050;-49
2023/09/02 19:36:27;;;;;;;;;;;;;;;;;;5002657;28;20321;-50
2023/09/02 19:38:53;;;;;;;;;;;;;;;;;;5005025;28;19910;-49
2023/09/02 19:41:19;;;;;;;;;;;;;;;;;;5002661;28;19924;-47
2023/09/02 19:43:45;;;;;;;;;;;;;;;;;;5005142;28;19933;-49
2023/09/02 19:46:11;;;;;;;;;;;;;;;;;;5006928;28;20063;-51
2023/09/02 19:48:37;;;;;;;;;;;;;;;;;;5005445;28;19920;-50
2023/09/02 19:51:02;;;;;;;;;;;;;;;;;;5007390;28;19937;-48
2023/09/02 19:53:29;;;;;;;;;;;;;;;;;;5006170;28;19968;-47
2023/09/02 19:55:55;;;;;;;;;;;;;;;;;;4989901;28;19918;-52
2023/09/02 19:58:21;;;;;;;;;;;;;;;;;;4989013;28;19914;-48
2023/09/02 20:00:47;;;;;;;;;;;;;;;;;;5004391;28;19992;-51
2023/09/02 20:03:17;;;;;;;;;;;;;;;;;;4989110;28;20365;-48
2023/09/02 20:05:43;;;;;;;;;;;;;;;;;;5006767;28;20400;-50
2023/09/02 20:08:09;;;;;;;;;;;;;;;;;;5002826;28;19959;-48
2023/09/02 20:10:35;;;;;;;;;;;;;;;;;;4985229;28;20029;-50
2023/09/02 20:13:01;;;;;;;;;;;;;;;;;;5005151;28;19957;-47
2023/09/02 20:15:27;;;;;;;;;;;;;;;;;;5006047;28;20313;-50
2023/09/02 20:17:53;;;;;;;;;;;;;;;;;;4997733;28;19913;-48
2023/09/02 20:20:19;;;;;;;;;;;;;;;;;;4985547;28;19936;-51
2023/09/02 20:22:45;;;;;;;;;;;;;;;;;;5000991;28;19925;-50
2023/09/02 20:25:11;;;;;;;;;;;;;;;;;;5004279;28;20426;-48
2023/09/02 20:27:37;;;;;;;;;;;;;;;;;;4989276;28;19917;-49
2023/09/02 20:30:03;;;;;;;;;;;;;;;;;;5005395;28;19913;-47
2023/09/02 20:32:29;;;;;;;;;;;;;;;;;;5005179;28;20419;-51
2023/09/02 20:34:55;;;;;;;;;;;;;;;;;;4988580;28;19928;-48
2023/09/02 20:37:22;;;;;;;;;;;;;;;;;;5005742;28;19964;-47
2023/09/02 20:39:48;;;;;;;;;;;;;;;;;;5005727;28;19917;-49
2023/09/02 20:42:13;;;;;;;;;;;;;;;;;;4986708;28;20017;-50
2023/09/02 20:44:39;;;;;;;;;;;;;;;;;;5004985;28;19921;-48
2023/09/02 20:47:05;;;;;;;;;;;;;;;;;;5007385;28;19939;-49
2023/09/02 20:49:31;;;;;;;;;;;;;;;;;;5005858;28;19917;-49
2023/09/02 20:51:57;;;;;;;;;;;;;;;;;;5003804;28;19913;-49
2023/09/02 20:54:23;;;;;;;;;;;;;;;;;;5006989;28;19917;-51
2023/09/02 20:56:49;;;;;;;;;;;;;;;;;;5003559;28;19913;-49
2023/09/02 20:59:15;;;;;;;;;;;;;;;;;;5001188;28;19917;-47
2023/09/02 21:01:40;;;;;;;;;;;;;;;;;;4999196;28;19949;-48
2023/09/02 21:04:06;;;;;;;;;;;;;;;;;;4987057;28;20096;-47
2023/09/02 21:06:32;;;;;;;;;;;;;;;;;;5005348;28;19918;-49
2023/09/02 21:08:58;;;;;;;;;;;;;;;;;;4987807;28;20266;-46
2023/09/02 21:11:24;;;;;;;;;;;;;;;;;;5003835;28;20008;-47
2023/09/02 21:13:50;;;;;;;;;;;;;;;;;;5006169;28;19909;-48
2023/09/02 21:16:16;;;;;;;;;;;;;;;;;;5003027;28;20229;-47
2023/09/02 21:18:42;;;;;;;;;;;;;;;;;;5006864;28;19956;-50
2023/09/02 21:21:07;;;;;;;;;;;;;;;;;;5008082;28;20291;-49
2023/09/02 21:23:33;;;;;;;;;;;;;;;;;;5010051;28;19928;-50
2023/09/02 21:26:00;;;;;;;;;;;;;;;;;;5008735;28;19928;-47
2023/09/02 21:28:26;;;;;;;;;;;;;;;;;;5010955;28;19914;-48
2023/09/02 21:30:52;;;;;;;;;;;;;;;;;;5010441;28;19968;-50
2023/09/02 21:33:18;;;;;;;;;;;;;;;;;;5010186;28;20419;-50
2023/09/02 21:35:44;;;;;;;;;;;;;;;;;;5002410;28;19918;-50
2023/09/02 21:38:10;;;;;;;;;;;;;;;;;;5005521;28;19910;-48
2023/09/02 21:40:36;;;;;;;;;;;;;;;;;;4993630;28;19917;-48
2023/09/02 21:43:01;;;;;;;;;;;;;;;;;;5006952;28;19948;-49
2023/09/02 21:45:27;;;;;;;;;;;;;;;;;;5012688;28;20549;-48
2023/09/02 21:47:53;;;;;;;;;;;;;;;;;;5012559;28;19921;-51
2023/09/02 21:50:19;;;;;;;;;;;;;;;;;;5012531;28;20365;-50
2023/09/02 21:52:45;;;;;;;;;;;;;;;;;;5012682;28;19917;-48